createdAt,value
2017-12-02T00:01:01.681Z,0.8
2017-12-02T00:02:23.943Z,0.8
2017-12-02T00:03:43.684Z,0.8
2017-12-02T00:05:05.963Z,0.8
2017-12-02T00:06:25.672Z,0.8
2017-12-02T00:07:47.884Z,0.9
2017-12-02T00:09:10.175Z,0.9
2017-12-02T00:10:32.424Z,0.9
2017-12-02T00:11:59.724Z,0.9
2017-12-02T00:13:29.538Z,0.9
2017-12-02T00:14:49.312Z,0.9
2017-12-02T00:16:09.118Z,0.8
2017-12-02T00:17:28.842Z,0.8
2017-12-02T00:18:48.554Z,0.8
2017-12-02T00:20:08.239Z,0.8
2017-12-02T00:21:27.941Z,0.8
2017-12-02T00:22:50.189Z,0.8
2017-12-02T00:24:12.409Z,0.8
2017-12-02T00:25:34.623Z,0.8
2017-12-02T00:26:54.347Z,0.8
2017-12-02T00:28:14.073Z,0.8
2017-12-02T00:29:33.798Z,0.8
2017-12-02T00:30:56.040Z,0.8
2017-12-02T00:32:15.816Z,0.8
2017-12-02T00:33:35.559Z,0.9
2017-12-02T00:35:00.370Z,0.8
2017-12-02T00:36:27.665Z,0.7
2017-12-02T00:37:57.542Z,0.8
2017-12-02T00:39:27.354Z,0.8
2017-12-02T00:40:49.608Z,0.8
2017-12-02T00:42:09.358Z,0.9
2017-12-02T00:43:29.094Z,0.8
2017-12-02T00:44:48.842Z,0.8
2017-12-02T00:46:08.576Z,0.8
2017-12-02T00:47:30.876Z,0.8
2017-12-02T00:48:58.232Z,0.8
2017-12-02T00:50:33.164Z,0.8
2017-12-02T00:51:55.442Z,0.8
2017-12-02T00:53:20.202Z,0.8
2017-12-02T00:54:42.475Z,0.8
2017-12-02T00:56:07.240Z,0.8
2017-12-02T00:57:26.930Z,0.8
2017-12-02T00:58:49.180Z,0.8
2017-12-02T01:00:08.963Z,0.8
2017-12-02T01:01:28.754Z,0.8
2017-12-02T01:02:51.047Z,0.8
2017-12-02T01:04:10.732Z,0.8
2017-12-02T01:05:30.436Z,0.8
2017-12-02T01:06:50.183Z,0.7
2017-12-02T01:08:09.882Z,0.7
2017-12-02T01:09:29.584Z,0.7
2017-12-02T01:10:54.356Z,0.7
2017-12-02T01:12:16.592Z,0.7
2017-12-02T01:13:46.423Z,0.7
2017-12-02T01:15:06.127Z,0.6
2017-12-02T01:16:33.451Z,0.6
2017-12-02T01:18:08.374Z,0.6
2017-12-02T01:19:30.654Z,0.6
2017-12-02T01:20:52.881Z,0.6
2017-12-02T01:22:12.600Z,0.6
2017-12-02T01:23:32.354Z,0.6
2017-12-02T01:24:57.095Z,0.6
2017-12-02T01:26:16.824Z,0.6
2017-12-02T01:27:36.546Z,0.6
2017-12-02T01:28:56.306Z,0.6
2017-12-02T01:30:16.035Z,0.6
2017-12-02T01:31:35.720Z,0.6
2017-12-02T01:32:57.936Z,0.5
2017-12-02T01:34:17.643Z,0.5
2017-12-02T01:35:37.358Z,0.5
2017-12-02T01:36:57.107Z,0.5
2017-12-02T01:38:21.862Z,0.4
2017-12-02T01:39:41.582Z,0.4
2017-12-02T01:41:03.826Z,0.4
2017-12-02T01:42:23.578Z,0.4
2017-12-02T01:43:43.303Z,0.5
2017-12-02T01:45:05.591Z,0.4
2017-12-02T01:46:25.308Z,0.3
2017-12-02T01:47:45.010Z,0.3
2017-12-02T01:49:04.761Z,0.4
2017-12-02T01:50:24.477Z,0.4
2017-12-02T01:51:44.168Z,0.4
2017-12-02T01:53:03.919Z,0.5
2017-12-02T01:54:23.651Z,0.5
2017-12-02T01:55:45.898Z,0.5
2017-12-02T01:57:05.590Z,0.4
2017-12-02T01:58:27.824Z,0.4
2017-12-02T01:59:47.520Z,0.4
2017-12-02T02:01:07.231Z,0.4
2017-12-02T02:02:29.477Z,0.4
2017-12-02T02:03:49.157Z,0.5
2017-12-02T02:05:08.865Z,0.5
2017-12-02T02:06:31.140Z,0.6
2017-12-02T02:07:50.840Z,0.6
2017-12-02T02:09:13.084Z,0.5
2017-12-02T02:10:32.824Z,0.5
2017-12-02T02:11:52.600Z,0.5
2017-12-02T02:13:12.303Z,0.5
2017-12-02T02:14:34.587Z,0.4
2017-12-02T02:16:01.878Z,0.4
2017-12-02T02:17:21.588Z,0.4
2017-12-02T02:18:41.287Z,0.4
2017-12-02T02:20:01.027Z,0.4
2017-12-02T02:21:20.717Z,0.4
2017-12-02T02:22:40.443Z,0.4
2017-12-02T02:24:00.143Z,0.4
2017-12-02T02:25:22.357Z,0.3
2017-12-02T02:26:47.116Z,0.3
2017-12-02T02:28:06.868Z,0.3
2017-12-02T02:29:29.093Z,0.4
2017-12-02T02:30:48.795Z,0.3
2017-12-02T02:32:08.516Z,0.3
2017-12-02T02:33:30.769Z,0.4
2017-12-02T02:34:53.053Z,0.4
2017-12-02T02:36:12.764Z,0.4
2017-12-02T02:37:32.519Z,0.4
2017-12-02T02:38:59.808Z,0.5
2017-12-02T02:40:19.541Z,0.5
2017-12-02T02:41:41.822Z,0.5
2017-12-02T02:43:01.552Z,0.3
2017-12-02T02:44:21.276Z,0.3
2017-12-02T02:45:46.033Z,0.2
2017-12-02T02:47:05.741Z,0.3
2017-12-02T02:48:25.433Z,0.2
2017-12-02T02:49:47.700Z,0.2
2017-12-02T02:51:07.466Z,0.2
2017-12-02T02:52:32.235Z,0.3
2017-12-02T02:53:54.467Z,0.2
2017-12-02T02:55:14.160Z,0.2
2017-12-02T02:56:33.853Z,0.1
2017-12-02T02:57:53.579Z,0.1
2017-12-02T02:59:13.313Z,0.1
2017-12-02T03:00:33.058Z,0.2
2017-12-02T03:01:52.803Z,0.2
2017-12-02T03:03:12.504Z,0.3
2017-12-02T03:04:39.806Z,0.3
2017-12-02T03:05:59.522Z,0.3
2017-12-02T03:07:29.350Z,0.3
2017-12-02T03:08:51.572Z,0.3
2017-12-02T03:10:23.959Z,0.3
2017-12-02T03:11:43.664Z,0.4
2017-12-02T03:13:13.520Z,0.4
2017-12-02T03:14:35.761Z,0.3
2017-12-02T03:16:08.140Z,0.2
2017-12-02T03:17:35.444Z,0.1
2017-12-02T03:18:55.139Z,0.1
2017-12-02T03:20:14.857Z,0.1
2017-12-02T03:21:39.625Z,0.1
2017-12-02T03:22:59.334Z,0.1
2017-12-02T03:24:19.067Z,0.1
2017-12-02T03:25:43.831Z,0.1
2017-12-02T03:27:18.712Z,0.1
2017-12-02T03:28:38.446Z,0.2
2017-12-02T03:30:00.675Z,0.2
2017-12-02T03:31:30.523Z,0.2
2017-12-02T03:32:57.855Z,0.3
2017-12-02T03:34:20.121Z,0.2
2017-12-02T03:35:39.810Z,0.2
2017-12-02T03:36:59.522Z,0.2
2017-12-02T03:38:26.816Z,0.2
2017-12-02T03:39:46.531Z,0.3
2017-12-02T03:41:06.231Z,0.4
2017-12-02T03:42:36.094Z,0.4
2017-12-02T03:44:00.840Z,0.4
2017-12-02T03:45:20.597Z,0.4
2017-12-02T03:46:40.295Z,0.3
2017-12-02T03:47:59.989Z,0.4
2017-12-02T03:49:19.684Z,0.3
2017-12-02T03:50:46.995Z,0.4
2017-12-02T03:52:06.748Z,0.3
2017-12-02T03:53:26.489Z,0.3
2017-12-02T03:54:48.711Z,0.4
2017-12-02T03:56:13.530Z,0.4
2017-12-02T03:57:33.313Z,0.3
2017-12-02T03:58:53.080Z,0.3
2017-12-02T04:00:12.809Z,0.3
2017-12-02T04:01:37.614Z,0.3
2017-12-02T04:02:59.882Z,0.3
2017-12-02T04:04:27.167Z,0.3
2017-12-02T04:05:46.895Z,0.2
2017-12-02T04:07:09.199Z,0.2
2017-12-02T04:08:28.949Z,0.1
2017-12-02T04:09:48.637Z,0
2017-12-02T04:11:08.390Z,0
2017-12-02T04:12:30.683Z,0
2017-12-02T04:13:58.036Z,0
2017-12-02T04:15:17.795Z,-0.1
2017-12-02T04:16:37.533Z,-0.2
2017-12-02T04:17:59.798Z,-0.1
2017-12-02T04:19:19.521Z,0
2017-12-02T04:20:39.224Z,0
2017-12-02T04:22:04.022Z,0.1
2017-12-02T04:23:31.333Z,0.1
2017-12-02T04:24:51.054Z,0.2
2017-12-02T04:26:13.308Z,0.2
2017-12-02T04:27:35.595Z,0.2
2017-12-02T04:29:00.385Z,0.2
2017-12-02T04:30:20.087Z,0.2
2017-12-02T04:31:39.779Z,0.2
2017-12-02T04:32:59.469Z,0.2
2017-12-02T04:34:24.300Z,0.2
2017-12-02T04:36:09.347Z,0.2
2017-12-02T04:37:29.080Z,0.2
2017-12-02T04:38:48.770Z,0.2
2017-12-02T04:40:08.491Z,0.2
2017-12-02T04:41:30.768Z,0.2
2017-12-02T04:42:50.518Z,0.2
2017-12-02T04:44:25.405Z,0.2
2017-12-02T04:45:50.171Z,0.2
2017-12-02T04:47:09.858Z,0.2
2017-12-02T04:48:32.134Z,0.2
2017-12-02T04:49:51.877Z,0.2
2017-12-02T04:51:11.577Z,0.2
2017-12-02T04:52:33.819Z,0.2
2017-12-02T04:53:53.531Z,0.1
2017-12-02T04:55:13.229Z,0.1
2017-12-02T04:56:32.976Z,0.1
2017-12-02T04:57:55.212Z,0.1
2017-12-02T04:59:19.969Z,0
2017-12-02T05:00:44.740Z,0
2017-12-02T05:02:04.475Z,0
2017-12-02T05:03:24.200Z,0.1
2017-12-02T05:04:59.096Z,0.1
2017-12-02T05:06:26.380Z,0.1
2017-12-02T05:07:48.604Z,0
2017-12-02T05:09:08.302Z,0
2017-12-02T05:10:33.142Z,0
2017-12-02T05:11:52.867Z,0
2017-12-02T05:13:12.621Z,-0.1
2017-12-02T05:14:32.334Z,0
2017-12-02T05:15:54.553Z,0
2017-12-02T05:17:21.846Z,0.1
2017-12-02T05:18:44.103Z,0.1
2017-12-02T05:20:19.002Z,0.1
2017-12-02T05:21:38.718Z,0.1
2017-12-02T05:22:58.414Z,0.1
2017-12-02T05:24:18.126Z,0.1
2017-12-02T05:25:45.434Z,0.1
2017-12-02T05:27:05.127Z,0.1
2017-12-02T05:28:24.825Z,0.2
2017-12-02T05:29:44.543Z,0.2
2017-12-02T05:31:04.237Z,0.2
2017-12-02T05:32:23.942Z,0.2
2017-12-02T05:33:48.692Z,0.2
2017-12-02T05:35:08.388Z,0.1
2017-12-02T05:36:33.163Z,0.1
2017-12-02T05:38:05.515Z,0.2
2017-12-02T05:39:25.213Z,0.2
2017-12-02T05:40:44.957Z,0.2
2017-12-02T05:42:12.276Z,0.1
2017-12-02T05:43:32.045Z,0.1
2017-12-02T05:44:51.765Z,0.1
2017-12-02T05:46:14.011Z,0.2
2017-12-02T05:47:33.731Z,0.2
2017-12-02T05:49:01.033Z,0.2
2017-12-02T05:50:20.750Z,0.2
2017-12-02T05:51:40.454Z,0.1
2017-12-02T05:53:00.188Z,0.1
2017-12-02T05:54:19.877Z,0.1
2017-12-02T05:55:39.608Z,0.2
2017-12-02T05:57:04.381Z,0.2
2017-12-02T05:58:36.770Z,0.2
2017-12-02T05:59:56.467Z,0.2
2017-12-02T06:01:26.328Z,0.2
2017-12-02T06:02:46.046Z,0.2
2017-12-02T06:04:08.315Z,0.2
2017-12-02T06:05:28.080Z,0.2
2017-12-02T06:06:47.815Z,0.2
2017-12-02T06:08:07.559Z,0.2
2017-12-02T06:09:29.798Z,0.2
2017-12-02T06:10:52.056Z,0.1
2017-12-02T06:12:11.770Z,0.1
2017-12-02T06:13:38.880Z,0.1
2017-12-02T06:15:01.099Z,0.1
2017-12-02T06:16:20.836Z,0.1
2017-12-02T06:17:45.609Z,0
2017-12-02T06:19:05.323Z,0
2017-12-02T06:20:25.016Z,0
2017-12-02T06:21:47.287Z,0
2017-12-02T06:23:09.578Z,-0.1
2017-12-02T06:24:31.840Z,-0.2
2017-12-02T06:25:54.115Z,-0.3
2017-12-02T06:27:13.876Z,-0.4
2017-12-02T06:28:33.587Z,-0.4
2017-12-02T06:29:53.346Z,-0.6
2017-12-02T06:31:13.056Z,-0.7
2017-12-02T06:32:40.435Z,-0.9
2017-12-02T06:34:00.146Z,-1.1
2017-12-02T06:35:24.940Z,-1.2
2017-12-02T06:36:49.709Z,-1.2
2017-12-02T06:38:14.518Z,-1.3
2017-12-02T06:39:34.229Z,-1.4
2017-12-02T06:41:01.537Z,-1.5
2017-12-02T06:42:33.892Z,-1.6
2017-12-02T06:43:58.657Z,-1.6
2017-12-02T06:45:18.381Z,-1.6
2017-12-02T06:46:40.646Z,-1.6
2017-12-02T06:48:00.414Z,-1.6
2017-12-02T06:49:25.247Z,-1.6
2017-12-02T06:50:47.520Z,-1.6
2017-12-02T06:52:07.265Z,-1.5
2017-12-02T06:53:29.514Z,-1.4
2017-12-02T06:54:49.231Z,-1.3
2017-12-02T06:56:08.991Z,-1.2
2017-12-02T06:57:28.765Z,-1.2
2017-12-02T06:58:56.076Z,-1.2
2017-12-02T07:00:18.315Z,-1.2
2017-12-02T07:01:38.035Z,-1.2
2017-12-02T07:03:00.312Z,-1.2
2017-12-02T07:04:20.016Z,-1.2
2017-12-02T07:05:44.791Z,-1.2
2017-12-02T07:07:07.059Z,-1.2
2017-12-02T07:08:26.809Z,-1.2
2017-12-02T07:09:46.565Z,-1.1
2017-12-02T07:11:18.955Z,-1.1
2017-12-02T07:12:48.787Z,-1.1
2017-12-02T07:14:16.098Z,-1.1
2017-12-02T07:15:35.861Z,-1.2
2017-12-02T07:16:55.647Z,-1.3
2017-12-02T07:18:20.433Z,-1.3
2017-12-02T07:19:40.149Z,-1.3
2017-12-02T07:21:02.476Z,-1.4
2017-12-02T07:22:22.213Z,-1.3
2017-12-02T07:23:41.949Z,-1.3
2017-12-02T07:25:04.198Z,-1.4
2017-12-02T07:26:23.911Z,-1.4
2017-12-02T07:27:46.213Z,-1.4
2017-12-02T07:29:13.582Z,-1.4
2017-12-02T07:30:35.843Z,-1.3
2017-12-02T07:32:00.669Z,-1.3
2017-12-02T07:33:22.910Z,-1.3
2017-12-02T07:34:45.147Z,-1.3
2017-12-02T07:36:04.876Z,-1.2
2017-12-02T07:37:24.593Z,-1.3
2017-12-02T07:38:44.347Z,-1.3
2017-12-02T07:40:04.112Z,-1.3
2017-12-02T07:41:26.376Z,-1.2
2017-12-02T07:42:48.628Z,-1.2
2017-12-02T07:44:15.977Z,-1.2
2017-12-02T07:45:35.695Z,-1.2
2017-12-02T07:46:55.435Z,-1.2
2017-12-02T07:48:15.185Z,-1.2
2017-12-02T07:49:34.907Z,-1.2
2017-12-02T07:50:54.604Z,-1.2
2017-12-02T07:52:14.337Z,-1.2
2017-12-02T07:53:36.586Z,-1.2
2017-12-02T07:54:56.294Z,-1.2
2017-12-02T07:56:16.046Z,-1.3
2017-12-02T07:57:38.312Z,-1.3
2017-12-02T07:59:03.086Z,-1.3
2017-12-02T08:00:22.796Z,-1.2
2017-12-02T08:01:42.505Z,-1.2
2017-12-02T08:03:02.291Z,-1.2
2017-12-02T08:04:24.546Z,-1
2017-12-02T08:05:44.254Z,-0.9
2017-12-02T08:07:11.562Z,-0.8
2017-12-02T08:08:38.893Z,-0.8
2017-12-02T08:09:58.629Z,-0.7
2017-12-02T08:11:18.352Z,-0.7
2017-12-02T08:12:38.074Z,-0.6
2017-12-02T08:14:02.866Z,-0.5
2017-12-02T08:15:25.120Z,-0.4
2017-12-02T08:16:52.441Z,-0.4
2017-12-02T08:18:14.697Z,-0.3
2017-12-02T08:19:34.422Z,-0.3
2017-12-02T08:20:56.694Z,-0.2
2017-12-02T08:22:29.083Z,-0.1
2017-12-02T08:23:48.788Z,0.1
2017-12-02T08:25:08.550Z,0
2017-12-02T08:26:33.381Z,-0.1
2017-12-02T08:27:58.151Z,-0.1
2017-12-02T08:29:20.437Z,-0.2
2017-12-02T08:30:42.682Z,-0.2
2017-12-02T08:32:02.391Z,-0.2
2017-12-02T08:33:22.177Z,-0.2
2017-12-02T08:34:49.498Z,-0.1
2017-12-02T08:36:09.264Z,0
2017-12-02T08:37:31.529Z,0
2017-12-02T08:38:51.239Z,0.2
2017-12-02T08:40:11.011Z,0.2
2017-12-02T08:41:30.771Z,0.3
2017-12-02T08:42:50.478Z,0.3
2017-12-02T08:44:20.310Z,0.4
2017-12-02T08:45:45.062Z,0.6
2017-12-02T08:47:04.759Z,0.6
2017-12-02T08:48:27.007Z,0.8
2017-12-02T08:49:46.738Z,0.8
2017-12-02T08:51:14.061Z,0.8
2017-12-02T08:52:33.771Z,0.7
2017-12-02T08:53:56.001Z,0.7
2017-12-02T08:55:15.702Z,0.7
2017-12-02T08:56:40.460Z,0.8
2017-12-02T08:58:05.278Z,1
2017-12-02T08:59:27.517Z,1.1
2017-12-02T09:00:47.218Z,1.2
2017-12-02T09:02:14.502Z,1.2
2017-12-02T09:03:34.213Z,1.2
2017-12-02T09:04:53.901Z,1.3
2017-12-02T09:06:13.588Z,1.4
2017-12-02T09:07:33.305Z,1.4
2017-12-02T09:08:58.134Z,1.4
2017-12-02T09:10:25.428Z,1.4
2017-12-02T09:11:45.116Z,1.4
2017-12-02T09:13:12.411Z,1.4
2017-12-02T09:14:32.115Z,1.4
2017-12-02T09:15:54.329Z,1.2
2017-12-02T09:17:24.203Z,1.2
2017-12-02T09:18:43.896Z,1.2
2017-12-02T09:20:03.641Z,1.3
2017-12-02T09:21:25.861Z,1.3
2017-12-02T09:22:55.706Z,1.3
2017-12-02T09:24:15.449Z,1.2
2017-12-02T09:25:37.706Z,1
2017-12-02T09:27:02.473Z,0.8
2017-12-02T09:28:22.209Z,0.7
2017-12-02T09:29:41.987Z,0.6
2017-12-02T09:31:04.236Z,0.5
2017-12-02T09:32:23.976Z,0.5
2017-12-02T09:33:46.253Z,0.5
2017-12-02T09:35:10.998Z,0.6
2017-12-02T09:36:33.303Z,0.5
2017-12-02T09:38:03.139Z,0.6
2017-12-02T09:39:22.825Z,0.7
2017-12-02T09:40:42.526Z,0.8
2017-12-02T09:42:02.260Z,1.1
2017-12-02T09:43:24.500Z,1.5
2017-12-02T09:44:49.291Z,2
2017-12-02T09:46:11.532Z,2.4
2017-12-02T09:47:33.778Z,2.6
2017-12-02T09:48:55.989Z,2.6
2017-12-02T09:50:18.291Z,2.7
2017-12-02T09:51:40.544Z,2.7
2017-12-02T09:53:00.295Z,2.8
2017-12-02T09:54:20.015Z,2.9
2017-12-02T09:55:42.234Z,2.8
2017-12-02T09:57:04.486Z,2.8
2017-12-02T09:58:24.202Z,2.8
2017-12-02T09:59:48.990Z,2.7
2017-12-02T10:01:11.245Z,2.5
2017-12-02T10:02:33.463Z,2.3
2017-12-02T10:03:53.185Z,2
2017-12-02T10:05:17.923Z,1.7
2017-12-02T10:06:37.603Z,1.4
2017-12-02T10:07:57.294Z,1.2
2017-12-02T10:09:17.047Z,1
2017-12-02T10:10:36.842Z,0.8
2017-12-02T10:11:56.566Z,0.8
2017-12-02T10:13:23.854Z,0.8
2017-12-02T10:14:43.611Z,0.9
2017-12-02T10:16:03.337Z,0.9
2017-12-02T10:17:25.577Z,0.9
2017-12-02T10:18:45.263Z,0.9
2017-12-02T10:20:07.507Z,0.9
2017-12-02T10:21:27.208Z,0.9
2017-12-02T10:22:46.911Z,0.9
2017-12-02T10:24:06.636Z,0.9
2017-12-02T10:25:31.475Z,1
2017-12-02T10:26:51.260Z,0.9
2017-12-02T10:28:10.972Z,1
2017-12-02T10:29:30.662Z,0.9
2017-12-02T10:30:50.373Z,0.9
2017-12-02T10:32:15.132Z,0.9
2017-12-02T10:33:42.429Z,0.9
2017-12-02T10:35:02.173Z,1
2017-12-02T10:36:26.937Z,1
2017-12-02T10:37:46.730Z,1
2017-12-02T10:39:08.974Z,1.1
2017-12-02T10:40:31.232Z,1.1
2017-12-02T10:41:51.054Z,1.1
2017-12-02T10:43:10.748Z,1
2017-12-02T10:44:35.570Z,1
2017-12-02T10:45:57.790Z,1
2017-12-02T10:47:22.560Z,1.1
2017-12-02T10:48:52.407Z,1.2
2017-12-02T10:50:12.108Z,1.3
2017-12-02T10:51:31.861Z,1.5
2017-12-02T10:52:54.145Z,1.7
2017-12-02T10:54:18.923Z,2
2017-12-02T10:55:41.177Z,2.2
2017-12-02T10:57:00.924Z,2.5
2017-12-02T10:58:20.686Z,2.6
2017-12-02T10:59:45.482Z,2.8
2017-12-02T11:01:05.225Z,3
2017-12-02T11:02:24.933Z,3
2017-12-02T11:03:44.646Z,3.2
2017-12-02T11:05:04.385Z,3.3
2017-12-02T11:06:24.100Z,3.3
2017-12-02T11:08:01.530Z,3.4
2017-12-02T11:09:21.264Z,3.5
2017-12-02T11:10:41.004Z,3.7
2017-12-02T11:12:03.274Z,3.8
2017-12-02T11:13:22.996Z,3.8
2017-12-02T11:14:42.763Z,3.7
2017-12-02T11:16:07.555Z,3.9
2017-12-02T11:17:37.365Z,4
2017-12-02T11:18:57.065Z,4
2017-12-02T11:20:16.761Z,3.9
2017-12-02T11:21:36.483Z,3.7
2017-12-02T11:22:56.220Z,3.7
2017-12-02T11:24:18.456Z,3.7
2017-12-02T11:25:38.162Z,3.7
2017-12-02T11:26:57.894Z,3.8
2017-12-02T11:28:20.175Z,3.7
2017-12-02T11:29:42.396Z,3.6
2017-12-02T11:31:02.119Z,3.6
2017-12-02T11:32:21.805Z,3.4
2017-12-02T11:33:41.508Z,3.4
2017-12-02T11:35:01.263Z,3.4
2017-12-02T11:36:28.562Z,3.6
2017-12-02T11:37:48.260Z,3.6
2017-12-02T11:39:18.063Z,3.7
2017-12-02T11:40:37.799Z,3.6
2017-12-02T11:42:15.244Z,3.6
2017-12-02T11:43:37.499Z,3.5
2017-12-02T11:45:07.362Z,3.4
2017-12-02T11:46:29.601Z,3.4
2017-12-02T11:47:49.316Z,3.5
2017-12-02T11:49:09.057Z,3.6
2017-12-02T11:50:28.751Z,3.7
2017-12-02T11:51:48.480Z,3.8
2017-12-02T11:53:10.744Z,3.9
2017-12-02T11:54:32.980Z,4.1
2017-12-02T11:55:55.249Z,4.1
2017-12-02T11:57:14.979Z,4.3
2017-12-02T11:58:44.810Z,4.3
2017-12-02T12:00:04.583Z,4
2017-12-02T12:01:29.370Z,4.1
2017-12-02T12:02:49.103Z,4
2017-12-02T12:04:11.396Z,3.9
2017-12-02T12:05:36.183Z,3.8
2017-12-02T12:06:55.908Z,3.9
2017-12-02T12:08:18.132Z,4.1
2017-12-02T12:09:37.846Z,4.1
2017-12-02T12:11:15.265Z,4.3
2017-12-02T12:12:37.543Z,4.4
2017-12-02T12:13:57.239Z,4.5
2017-12-02T12:15:24.543Z,4.7
2017-12-02T12:16:44.252Z,4.8
2017-12-02T12:18:06.494Z,5.2
2017-12-02T12:19:28.725Z,5.3
2017-12-02T12:20:53.506Z,5.7
2017-12-02T12:22:13.210Z,6
2017-12-02T12:23:32.911Z,6
2017-12-02T12:24:52.616Z,6
2017-12-02T12:26:14.912Z,5.9
2017-12-02T12:27:39.715Z,5.9
2017-12-02T12:29:04.480Z,5.6
2017-12-02T12:30:24.176Z,5.8
2017-12-02T12:31:43.888Z,5.7
2017-12-02T12:33:03.612Z,5.5
2017-12-02T12:34:23.305Z,5.4
2017-12-02T12:35:42.985Z,5.6
2017-12-02T12:37:07.746Z,5.2
2017-12-02T12:38:27.458Z,4.8
2017-12-02T12:39:47.195Z,4.6
2017-12-02T12:41:06.907Z,4.3
2017-12-02T12:42:39.289Z,4.1
2017-12-02T12:44:01.537Z,3.9
2017-12-02T12:45:23.754Z,3.6
2017-12-02T12:46:46.068Z,3.4
2017-12-02T12:48:10.897Z,3.4
2017-12-02T12:49:30.625Z,3.4
2017-12-02T12:51:08.025Z,3.4
2017-12-02T12:52:30.263Z,3.5
2017-12-02T12:53:52.541Z,3.6
2017-12-02T12:55:14.763Z,3.5
2017-12-02T12:56:34.457Z,3.5
2017-12-02T12:57:54.212Z,3.5
2017-12-02T12:59:13.974Z,3.5
2017-12-02T13:00:38.722Z,3.5
2017-12-02T13:01:58.462Z,3.5
2017-12-02T13:03:23.235Z,3.5
2017-12-02T13:04:45.501Z,3.7
2017-12-02T13:06:07.774Z,3.9
2017-12-02T13:07:27.459Z,3.9
2017-12-02T13:09:07.398Z,4.1
2017-12-02T13:10:32.162Z,4
2017-12-02T13:11:51.947Z,3.9
2017-12-02T13:13:11.655Z,4
2017-12-02T13:14:33.914Z,3.7
2017-12-02T13:15:53.620Z,3.5
2017-12-02T13:17:13.340Z,3.4
2017-12-02T13:18:33.072Z,3.2
2017-12-02T13:19:52.829Z,3.2
2017-12-02T13:21:12.524Z,3.1
2017-12-02T13:22:34.761Z,3
2017-12-02T13:23:54.466Z,3
2017-12-02T13:25:21.752Z,2.9
2017-12-02T13:26:46.501Z,2.9
2017-12-02T13:28:21.397Z,2.8
2017-12-02T13:29:46.156Z,2.9
2017-12-02T13:31:10.944Z,2.8
2017-12-02T13:32:33.179Z,2.8
2017-12-02T13:33:55.473Z,2.7
2017-12-02T13:35:20.300Z,2.7
2017-12-02T13:36:39.993Z,2.5
2017-12-02T13:38:02.321Z,2.7
2017-12-02T13:39:22.018Z,2.7
2017-12-02T13:40:44.237Z,2.8
2017-12-02T13:42:03.969Z,2.8
2017-12-02T13:43:23.690Z,2.8
2017-12-02T13:44:45.945Z,2.8
2017-12-02T13:46:05.716Z,2.9
2017-12-02T13:47:30.509Z,2.9
2017-12-02T13:48:52.744Z,2.8
2017-12-02T13:50:12.456Z,2.7
2017-12-02T13:51:32.164Z,2.5
2017-12-02T13:52:51.876Z,2.5
2017-12-02T13:54:11.581Z,2.5
2017-12-02T13:55:31.305Z,2.5
2017-12-02T13:56:51.013Z,2.5
2017-12-02T13:58:13.242Z,2.5
2017-12-02T13:59:35.517Z,2.6
2017-12-02T14:00:57.760Z,2.5
2017-12-02T14:02:17.500Z,2.5
2017-12-02T14:03:37.208Z,2.4
2017-12-02T14:04:59.448Z,2.3
2017-12-02T14:06:19.142Z,2.2
2017-12-02T14:07:38.836Z,2.2
2017-12-02T14:09:01.089Z,2.1
2017-12-02T14:10:20.847Z,2.1
2017-12-02T14:11:40.595Z,2.1
2017-12-02T14:13:02.822Z,1.9
2017-12-02T14:14:27.589Z,1.9
2017-12-02T14:15:47.289Z,1.8
2017-12-02T14:17:09.518Z,1.8
2017-12-02T14:18:31.779Z,1.8
2017-12-02T14:20:04.167Z,1.8
2017-12-02T14:21:23.866Z,1.7
2017-12-02T14:22:51.156Z,1.8
2017-12-02T14:24:13.425Z,1.8
2017-12-02T14:25:33.113Z,1.9
2017-12-02T14:26:52.805Z,1.8
2017-12-02T14:28:15.109Z,1.8
2017-12-02T14:29:57.614Z,1.7
2017-12-02T14:31:19.845Z,1.7
2017-12-02T14:32:39.620Z,1.8
2017-12-02T14:34:04.389Z,1.8
2017-12-02T14:35:24.082Z,1.8
2017-12-02T14:36:53.917Z,1.7
2017-12-02T14:38:13.675Z,1.7
2017-12-02T14:39:38.439Z,1.7
2017-12-02T14:41:00.718Z,1.8
2017-12-02T14:42:25.509Z,1.7
2017-12-02T14:43:45.247Z,1.6
2017-12-02T14:45:05.026Z,1.6
2017-12-02T14:46:29.795Z,1.5
2017-12-02T14:47:49.544Z,1.5
2017-12-02T14:49:09.278Z,1.4
2017-12-02T14:50:29.017Z,1.4
2017-12-02T14:51:51.274Z,1.3
2017-12-02T14:53:10.967Z,1.3
2017-12-02T14:54:33.249Z,1.4
2017-12-02T14:56:13.242Z,1.3
2017-12-02T14:57:38.002Z,1.4
2017-12-02T14:58:57.699Z,1.4
2017-12-02T15:00:17.419Z,1.4
2017-12-02T15:01:37.115Z,1.3
2017-12-02T15:02:59.344Z,1.2
2017-12-02T15:04:19.041Z,1.1
2017-12-02T15:05:38.792Z,1
2017-12-02T15:07:01.004Z,1
2017-12-02T15:08:23.258Z,0.9
2017-12-02T15:09:42.950Z,0.9
2017-12-02T15:11:05.248Z,0.8
2017-12-02T15:12:24.982Z,0.7
2017-12-02T15:13:47.247Z,0.6
2017-12-02T15:15:09.478Z,0.6
2017-12-02T15:16:29.193Z,0.7
2017-12-02T15:17:48.889Z,0.7
2017-12-02T15:19:16.175Z,0.7
2017-12-02T15:20:35.893Z,0.7
2017-12-02T15:21:55.605Z,0.7
2017-12-02T15:23:22.951Z,0.8
2017-12-02T15:24:42.705Z,0.7
2017-12-02T15:26:02.423Z,0.7
2017-12-02T15:27:24.679Z,0.7
2017-12-02T15:28:44.396Z,0.6
2017-12-02T15:30:06.617Z,0.6
2017-12-02T15:31:41.490Z,0.6
2017-12-02T15:33:06.314Z,0.6
2017-12-02T15:34:28.531Z,0.6
2017-12-02T15:35:53.280Z,0.6
2017-12-02T15:37:12.970Z,0.7
2017-12-02T15:38:35.260Z,0.7
2017-12-02T15:39:54.992Z,0.8
2017-12-02T15:41:14.722Z,0.7
2017-12-02T15:42:34.425Z,0.7
2017-12-02T15:44:11.933Z,0.7
2017-12-02T15:45:44.287Z,0.8
2017-12-02T15:47:03.969Z,0.9
2017-12-02T15:48:26.225Z,0.9
2017-12-02T15:49:51.013Z,1
2017-12-02T15:51:15.815Z,0.9
2017-12-02T15:52:35.518Z,0.8
2017-12-02T15:53:55.236Z,0.7
2017-12-02T15:55:17.492Z,0.7
2017-12-02T15:56:42.230Z,0.7
2017-12-02T15:58:01.910Z,0.7
2017-12-02T15:59:29.215Z,0.8
2017-12-02T16:00:51.475Z,0.9
2017-12-02T16:02:28.903Z,0.9
2017-12-02T16:03:48.607Z,0.9
2017-12-02T16:05:13.415Z,1
2017-12-02T16:06:33.144Z,0.9
2017-12-02T16:07:52.825Z,0.9
2017-12-02T16:09:12.571Z,0.9
2017-12-02T16:10:34.852Z,0.8
2017-12-02T16:11:59.716Z,0.8
2017-12-02T16:13:27.000Z,0.8
2017-12-02T16:14:46.736Z,0.8
2017-12-02T16:16:08.952Z,0.8
2017-12-02T16:17:28.646Z,0.8
2017-12-02T16:18:48.332Z,1
2017-12-02T16:20:08.037Z,1
2017-12-02T16:21:30.340Z,0.9
2017-12-02T16:22:57.641Z,0.8
2017-12-02T16:24:17.336Z,0.8
2017-12-02T16:25:37.045Z,0.7
2017-12-02T16:27:01.835Z,0.6
2017-12-02T16:28:21.555Z,0.6
2017-12-02T16:29:46.314Z,0.6
2017-12-02T16:31:06.025Z,0.6
2017-12-02T16:32:25.724Z,0.6
2017-12-02T16:33:55.571Z,0.7
2017-12-02T16:35:27.924Z,0.7
2017-12-02T16:36:47.613Z,0.8
2017-12-02T16:38:07.307Z,0.7
2017-12-02T16:39:29.587Z,0.8
2017-12-02T16:40:49.310Z,0.8
2017-12-02T16:42:19.157Z,0.9
2017-12-02T16:43:38.918Z,0.9
2017-12-02T16:45:01.155Z,0.8
2017-12-02T16:46:20.891Z,0.7
2017-12-02T16:47:40.592Z,0.7
2017-12-02T16:49:00.283Z,0.7
2017-12-02T16:50:22.529Z,0.7
2017-12-02T16:51:44.796Z,0.7
2017-12-02T16:53:09.586Z,0.7
2017-12-02T16:54:29.292Z,0.8
2017-12-02T16:55:49.051Z,0.8
2017-12-02T16:57:08.742Z,0.9
2017-12-02T16:58:33.567Z,0.9
2017-12-02T16:59:53.274Z,0.9
2017-12-02T17:01:12.981Z,0.8
2017-12-02T17:02:35.259Z,0.8
2017-12-02T17:03:57.490Z,0.8
2017-12-02T17:05:22.310Z,0.8
2017-12-02T17:06:44.637Z,0.8
2017-12-02T17:08:14.494Z,0.8
2017-12-02T17:09:36.715Z,0.9
2017-12-02T17:10:56.428Z,0.9
2017-12-02T17:12:18.690Z,1
2017-12-02T17:13:43.464Z,1
2017-12-02T17:15:05.691Z,0.9
2017-12-02T17:16:30.449Z,0.9
2017-12-02T17:17:57.750Z,0.9
2017-12-02T17:19:17.505Z,0.9
2017-12-02T17:20:37.186Z,0.9
2017-12-02T17:21:59.448Z,0.8
2017-12-02T17:23:19.172Z,0.8
2017-12-02T17:24:38.922Z,0.9
2017-12-02T17:26:06.212Z,0.9
2017-12-02T17:27:25.931Z,0.9
2017-12-02T17:28:45.673Z,0.9
2017-12-02T17:30:05.372Z,0.9
2017-12-02T17:31:25.059Z,0.9
2017-12-02T17:32:44.833Z,0.9
2017-12-02T17:34:09.674Z,0.9
2017-12-02T17:35:29.456Z,0.9
2017-12-02T17:36:49.206Z,0.9
2017-12-02T17:38:08.936Z,1
2017-12-02T17:39:31.222Z,1
2017-12-02T17:40:50.915Z,1
2017-12-02T17:42:18.218Z,0.8
2017-12-02T17:43:37.979Z,0.8
2017-12-02T17:45:05.355Z,0.8
2017-12-02T17:46:25.037Z,0.8
2017-12-02T17:47:44.758Z,0.9
2017-12-02T17:49:09.557Z,0.8
2017-12-02T17:50:29.303Z,0.8
2017-12-02T17:51:49.002Z,0.7
2017-12-02T17:53:08.710Z,0.7
2017-12-02T17:54:28.435Z,0.7
2017-12-02T17:55:53.202Z,0.7
2017-12-02T17:57:17.972Z,0.8
2017-12-02T17:58:37.688Z,0.7
2017-12-02T17:59:57.392Z,0.7
2017-12-02T18:01:19.677Z,0.6
2017-12-02T18:02:44.468Z,0.5
2017-12-02T18:04:16.805Z,0.4
2017-12-02T18:05:36.499Z,0.4
2017-12-02T18:07:01.262Z,0.4
2017-12-02T18:08:20.986Z,0.5
2017-12-02T18:09:43.250Z,0.6
2017-12-02T18:11:05.504Z,0.6
2017-12-02T18:12:25.274Z,0.7
2017-12-02T18:13:44.962Z,0.7
2017-12-02T18:15:09.758Z,0.8
2017-12-02T18:16:29.475Z,0.7
2017-12-02T18:17:54.292Z,0.8
2017-12-02T18:19:14.006Z,0.8
2017-12-02T18:20:38.773Z,0.8
2017-12-02T18:21:58.518Z,0.8
2017-12-02T18:23:18.232Z,0.8
2017-12-02T18:24:37.925Z,0.8
2017-12-02T18:26:00.153Z,0.7
2017-12-02T18:27:24.943Z,0.6
2017-12-02T18:28:49.784Z,0.6
2017-12-02T18:30:09.508Z,0.6
2017-12-02T18:31:34.344Z,0.7
2017-12-02T18:32:54.054Z,0.8
2017-12-02T18:34:16.312Z,0.7
2017-12-02T18:35:41.076Z,0.7
2017-12-02T18:37:05.873Z,0.8
2017-12-02T18:38:28.106Z,0.8
2017-12-02T18:39:52.883Z,0.8
2017-12-02T18:41:12.581Z,0.8
2017-12-02T18:42:34.836Z,0.7
2017-12-02T18:43:54.567Z,0.7
2017-12-02T18:45:14.295Z,0.6
2017-12-02T18:46:34.018Z,0.7
2017-12-02T18:47:53.771Z,0.8
2017-12-02T18:49:16.036Z,0.8
2017-12-02T18:50:35.739Z,0.8
2017-12-02T18:52:03.037Z,0.7
2017-12-02T18:53:25.254Z,0.7